createdAt,value
2023-03-02T00:03:05.482Z,-2.76
2023-03-02T00:07:13.588Z,-2.75
2023-03-02T00:11:41.099Z,-2.75
2023-03-02T00:15:49.425Z,-2.79
2023-03-02T00:19:58.999Z,-2.85
2023-03-02T00:24:06.870Z,-2.78
2023-03-02T00:27:54.732Z,-2.86
2023-03-02T00:31:50.850Z,-2.86
2023-03-02T00:35:38.944Z,-2.90
2023-03-02T00:39:27.217Z,-2.90
2023-03-02T00:43:16.523Z,-2.95
2023-03-02T00:46:55.332Z,-2.97
2023-03-02T00:50:42.918Z,-2.92
2023-03-02T00:54:31.070Z,-2.87
2023-03-02T00:58:19.590Z,-2.94
2023-03-02T01:02:07.341Z,-3.07
2023-03-02T01:05:35.998Z,-3.15
2023-03-02T01:08:56.667Z,-3.22
2023-03-02T01:11:40.902Z,-3.03
2023-03-02T01:14:28.577Z,-2.85
2023-03-02T01:17:40.745Z,-2.80
2023-03-02T01:21:15.330Z,-2.76
2023-03-02T01:24:50.519Z,-2.71
2023-03-02T01:27:48.119Z,-2.75
2023-03-02T01:30:57.306Z,-2.77
2023-03-02T01:34:23.084Z,-2.76
2023-03-02T01:37:53.572Z,-2.79
2023-03-02T01:41:10.237Z,-2.85
2023-03-02T01:45:16.116Z,-2.81
2023-03-02T01:48:41.497Z,-2.84
2023-03-02T01:52:29.214Z,-2.89
2023-03-02T01:55:57.645Z,-2.89
2023-03-02T01:58:41.819Z,-2.98
2023-03-02T02:01:54.301Z,-2.97
2023-03-02T02:05:11.353Z,-2.99
2023-03-02T02:07:56.360Z,-3.05
2023-03-02T02:11:10.951Z,-3.04
2023-03-02T02:14:41.725Z,-3.13
2023-03-02T02:18:01.899Z,-3.24
2023-03-02T02:21:42.244Z,-3.25
2023-03-02T02:25:30.395Z,-3.26
2023-03-02T02:28:43.222Z,-3.24
2023-03-02T02:32:31.989Z,-3.23
2023-03-02T02:35:39.134Z,-3.32
2023-03-02T02:38:59.017Z,-3.37
2023-03-02T02:42:38.204Z,-3.45
2023-03-02T02:46:14.436Z,-3.48
2023-03-02T02:50:01.759Z,-3.52
2023-03-02T02:53:24.494Z,-3.47
2023-03-02T02:56:47.139Z,-3.39
2023-03-02T03:00:27.679Z,-3.36
2023-03-02T03:03:33.058Z,-3.39
2023-03-02T03:07:02.430Z,-3.35
2023-03-02T03:10:28.767Z,-3.38
2023-03-02T03:14:07.807Z,-3.38
2023-03-02T03:17:15.370Z,-3.41
2023-03-02T03:20:46.357Z,-3.42
2023-03-02T03:24:14.190Z,-3.59
2023-03-02T03:27:27.872Z,-3.52
2023-03-02T03:31:05.106Z,-3.68
2023-03-02T03:34:36.640Z,-3.65
2023-03-02T03:37:47.781Z,-3.80
2023-03-02T03:41:11.310Z,-3.92
2023-03-02T03:44:02.042Z,-3.92
2023-03-02T03:46:56.674Z,-3.92
2023-03-02T03:50:34.173Z,-3.93
2023-03-02T03:54:21.127Z,-3.94
2023-03-02T03:57:30.319Z,-4.03
2023-03-02T04:00:25.592Z,-4.05
2023-03-02T04:03:51.170Z,-4.03
2023-03-02T04:06:40.944Z,-4.07
2023-03-02T04:09:30.628Z,-4.08
2023-03-02T04:12:37.938Z,-4.02
2023-03-02T04:15:27.744Z,-3.99
2023-03-02T04:18:22.711Z,-3.61
2023-03-02T04:21:47.713Z,-3.37
2023-03-02T04:24:22.352Z,-3.37
2023-03-02T04:27:09.856Z,-3.61
2023-03-02T04:30:37.435Z,-3.53
2023-03-02T04:33:35.437Z,-3.48
2023-03-02T04:36:56.933Z,-3.51
2023-03-02T04:39:46.561Z,-3.43
2023-03-02T04:42:44.732Z,-3.37
2023-03-02T04:46:08.325Z,-3.33
2023-03-02T04:49:48.121Z,-3.14
2023-03-02T04:53:35.851Z,-2.94
2023-03-02T04:57:21.894Z,-2.71
2023-03-02T05:00:55.482Z,-2.56
2023-03-02T05:03:38.938Z,-2.49
2023-03-02T05:06:24.987Z,-2.47
2023-03-02T05:09:29.607Z,-2.46
2023-03-02T05:13:18.708Z,-2.44
2023-03-02T05:15:51.194Z,-2.40
2023-03-02T05:19:15.063Z,-2.40
2023-03-02T05:22:47.774Z,-2.46
2023-03-02T05:26:23.867Z,-2.38
2023-03-02T05:30:04.079Z,-2.33
2023-03-02T05:33:51.499Z,-2.22
2023-03-02T05:36:41.874Z,-2.17
2023-03-02T05:39:58.628Z,-2.00
2023-03-02T05:43:27.660Z,-1.88
2023-03-02T05:46:51.143Z,-1.73
2023-03-02T05:49:53.991Z,-1.64
2023-03-02T05:52:54.966Z,-1.50
2023-03-02T05:55:54.512Z,-1.39
2023-03-02T05:59:24.543Z,-1.26
2023-03-02T06:02:07.520Z,-1.21
2023-03-02T06:05:37.263Z,-1.10
2023-03-02T06:08:56.621Z,-0.96
2023-03-02T06:12:18.675Z,-0.90
2023-03-02T06:15:42.515Z,-0.84
2023-03-02T06:19:04.985Z,-0.82
2023-03-02T06:22:33.353Z,-0.81
2023-03-02T06:26:05.521Z,-0.85
2023-03-02T06:29:46.969Z,-0.77
2023-03-02T06:33:18.424Z,-0.71
2023-03-02T06:36:52.710Z,-0.63
2023-03-02T06:41:02.060Z,-0.50
2023-03-02T06:44:25.245Z,-0.45
2023-03-02T06:48:13.042Z,-0.41
2023-03-02T06:52:01.015Z,-0.38
2023-03-02T06:55:49.618Z,-0.28
2023-03-02T06:59:37.221Z,-0.29
2023-03-02T07:03:18.381Z,-0.20
2023-03-02T07:07:06.119Z,-0.22
2023-03-02T07:10:53.790Z,-0.26
2023-03-02T07:14:31.670Z,-0.26
2023-03-02T07:18:20.190Z,-0.16
2023-03-02T07:22:08.495Z,-0.05
2023-03-02T07:25:50.294Z,-0.02
2023-03-02T07:29:38.039Z,0.04
2023-03-02T07:33:25.733Z,0.12
2023-03-02T07:37:13.593Z,0.14
2023-03-02T07:41:02.834Z,0.18
2023-03-02T07:44:52.202Z,0.26
2023-03-02T07:49:17.168Z,0.25
2023-03-02T07:53:36.976Z,0.30
2023-03-02T07:57:55.826Z,0.34
2023-03-02T08:02:23.334Z,0.48
2023-03-02T08:06:51.279Z,0.61
2023-03-02T08:11:18.934Z,0.49
2023-03-02T08:15:30.397Z,0.44
2023-03-02T08:19:58.132Z,0.63
2023-03-02T08:24:09.258Z,0.79
2023-03-02T08:28:13.185Z,0.77
2023-03-02T08:32:21.582Z,0.65
2023-03-02T08:36:10.421Z,0.68
2023-03-02T08:39:58.925Z,0.73
2023-03-02T08:43:47.565Z,0.99
2023-03-02T08:47:30.018Z,1.12
2023-03-02T08:51:17.848Z,1.29
2023-03-02T08:54:56.230Z,1.18
2023-03-02T08:58:44.255Z,1.23
2023-03-02T09:02:32.173Z,1.37
2023-03-02T09:06:20.035Z,1.61
2023-03-02T09:09:58.249Z,1.81
2023-03-02T09:13:19.395Z,1.81
2023-03-02T09:17:07.201Z,1.88
2023-03-02T09:20:48.748Z,2.06
2023-03-02T09:24:36.392Z,2.17
2023-03-02T09:28:12.782Z,2.30
2023-03-02T09:32:00.646Z,2.15
2023-03-02T09:35:32.101Z,2.29
2023-03-02T09:39:19.309Z,2.43
2023-03-02T09:43:21.476Z,2.18
2023-03-02T09:47:06.906Z,2.36
2023-03-02T09:51:10.005Z,1.99
2023-03-02T09:54:43.611Z,1.88
2023-03-02T09:58:31.226Z,2.06
2023-03-02T10:02:09.578Z,2.13
2023-03-02T10:05:57.591Z,2.13
2023-03-02T10:09:45.615Z,2.38
2023-03-02T10:13:36.044Z,2.32
2023-03-02T10:17:30.951Z,2.16
2023-03-02T10:21:13.670Z,2.08
2023-03-02T10:25:04.469Z,2.04
2023-03-02T10:28:55.245Z,2.26
2023-03-02T10:32:49.552Z,2.34
2023-03-02T10:36:25.438Z,2.50
2023-03-02T10:40:13.184Z,2.69
2023-03-02T10:43:55.774Z,2.67
2023-03-02T10:47:43.424Z,2.53
2023-03-02T10:51:31.026Z,2.55
2023-03-02T10:55:18.845Z,2.55
2023-03-02T10:59:24.377Z,2.61
2023-03-02T11:03:03.540Z,2.60
2023-03-02T11:07:00.011Z,2.54
2023-03-02T11:11:01.121Z,2.35
2023-03-02T11:14:55.184Z,2.43
2023-03-02T11:18:41.325Z,2.33
2023-03-02T11:22:46.953Z,2.48
2023-03-02T11:26:18.423Z,2.74
2023-03-02T11:30:17.470Z,2.87
2023-03-02T11:34:16.703Z,2.55
2023-03-02T11:38:22.975Z,2.36
2023-03-02T11:42:28.969Z,2.41
2023-03-02T11:46:21.712Z,2.68
2023-03-02T11:50:16.241Z,2.88
2023-03-02T11:54:04.381Z,3.08
2023-03-02T11:57:54.455Z,3.15
2023-03-02T12:01:41.951Z,2.88
2023-03-02T12:05:29.916Z,2.74
2023-03-02T12:09:20.392Z,2.61
2023-03-02T12:13:17.277Z,3.12
2023-03-02T12:17:22.221Z,3.50
2023-03-02T12:21:22.183Z,3.26
2023-03-02T12:25:22.440Z,3.06
2023-03-02T12:29:12.855Z,3.09
2023-03-02T12:33:06.530Z,3.33
2023-03-02T12:37:00.009Z,2.91
2023-03-02T12:40:48.806Z,2.62
2023-03-02T12:44:55.586Z,2.72
2023-03-02T12:48:43.016Z,3.16
2023-03-02T12:52:36.895Z,3.34
2023-03-02T12:56:25.711Z,3.66
2023-03-02T13:00:18.856Z,3.72
2023-03-02T13:03:54.548Z,3.64
2023-03-02T13:07:42.658Z,3.50
2023-03-02T13:11:31.517Z,3.41
2023-03-02T13:15:20.193Z,3.01
2023-03-02T13:19:08.651Z,3.03
2023-03-02T13:22:57.337Z,3.00
2023-03-02T13:26:53.677Z,3.10
2023-03-02T13:30:48.652Z,3.14
2023-03-02T13:34:37.159Z,3.34
2023-03-02T13:38:34.746Z,3.43
2023-03-02T13:42:32.312Z,3.35
2023-03-02T13:46:32.435Z,3.16
2023-03-02T13:50:32.933Z,2.95
2023-03-02T13:53:57.440Z,3.02
2023-03-02T13:57:45.721Z,3.05
2023-03-02T14:01:35.374Z,3.24
2023-03-02T14:05:23.643Z,3.28
2023-03-02T14:09:13.236Z,3.18
2023-03-02T14:12:28.977Z,3.28
2023-03-02T14:16:17.029Z,3.63
2023-03-02T14:20:41.668Z,3.87
2023-03-02T14:23:47.529Z,3.98
2023-03-02T14:27:35.726Z,3.83
2023-03-02T14:31:23.811Z,3.82
2023-03-02T14:35:09.969Z,4.01
2023-03-02T14:38:38.489Z,4.00
2023-03-02T14:42:26.992Z,4.00
2023-03-02T14:46:04.977Z,3.93
2023-03-02T14:49:35.704Z,3.69
2023-03-02T14:53:29.721Z,4.08
2023-03-02T14:56:54.836Z,4.33
2023-03-02T15:00:43.928Z,4.47
2023-03-02T15:04:32.226Z,4.45
2023-03-02T15:08:44.443Z,4.43
2023-03-02T15:12:32.682Z,4.62
2023-03-02T15:16:20.940Z,4.78
2023-03-02T15:20:09.492Z,4.76
2023-03-02T15:23:48.762Z,4.71
2023-03-02T15:27:37.440Z,4.58
2023-03-02T15:31:18.757Z,4.50
2023-03-02T15:35:07.466Z,4.39
2023-03-02T15:38:42.662Z,4.48
2023-03-02T15:42:31.139Z,4.67
2023-03-02T15:46:20.582Z,4.77
2023-03-02T15:50:10.584Z,4.35
2023-03-02T15:53:59.612Z,4.24
2023-03-02T15:57:49.038Z,3.61
2023-03-02T16:01:33.811Z,3.27
2023-03-02T16:05:24.260Z,3.24
2023-03-02T16:09:16.048Z,3.04
2023-03-02T16:13:09.200Z,2.98
2023-03-02T16:16:50.517Z,2.84
2023-03-02T16:20:40.112Z,2.93
2023-03-02T16:24:24.174Z,3.05
2023-03-02T16:28:00.757Z,3.08
2023-03-02T16:31:40.215Z,3.21
2023-03-02T16:35:28.851Z,3.33
2023-03-02T16:39:20.393Z,3.14
2023-03-02T16:43:09.819Z,3.05
2023-03-02T16:47:01.514Z,3.13
2023-03-02T16:50:41.800Z,3.02
2023-03-02T16:54:37.358Z,3.03
2023-03-02T16:58:26.359Z,2.97
2023-03-02T17:02:22.137Z,3.13
2023-03-02T17:06:04.662Z,3.33
2023-03-02T17:09:54.458Z,3.33
2023-03-02T17:13:42.730Z,3.28
2023-03-02T17:17:34.541Z,3.24
2023-03-02T17:21:10.500Z,3.03
2023-03-02T17:24:58.213Z,3.03
2023-03-02T17:28:43.916Z,2.97
2023-03-02T17:32:32.893Z,2.92
2023-03-02T17:36:23.797Z,2.94
2023-03-02T17:39:40.255Z,2.85
2023-03-02T17:47:27.225Z,2.50
2023-03-02T17:50:55.890Z,2.49
2023-03-02T17:54:45.371Z,2.46
2023-03-02T17:58:44.182Z,2.35
2023-03-02T18:01:48.851Z,2.45
2023-03-02T18:05:37.352Z,2.58
2023-03-02T18:10:07.768Z,2.55
2023-03-02T18:14:36.457Z,2.52
2023-03-02T18:19:05.670Z,2.43
2023-03-02T18:23:34.119Z,2.36
2023-03-02T18:28:03.243Z,2.12
2023-03-02T18:33:22.199Z,2.07
2023-03-02T18:37:05.162Z,2.19
2023-03-02T18:41:34.438Z,2.19
2023-03-02T18:46:06.025Z,2.22
2023-03-02T18:50:34.466Z,2.18
2023-03-02T18:55:08.923Z,2.16
2023-03-02T18:59:40.261Z,2.29
2023-03-02T19:04:09.528Z,2.31
2023-03-02T19:23:22.652Z,2.40
2023-03-02T19:27:01.527Z,2.42
2023-03-02T19:30:41.760Z,2.37
2023-03-02T19:35:16.083Z,2.42
2023-03-02T19:50:45.986Z,2.33
2023-03-02T19:54:06.471Z,2.28
2023-03-02T19:57:51.448Z,2.46
2023-03-02T20:01:27.358Z,2.50
2023-03-02T20:04:50.112Z,2.48
2023-03-02T20:08:16.208Z,2.42
2023-03-02T20:11:33.037Z,2.34
2023-03-02T20:15:15.708Z,2.43
2023-03-02T20:23:34.675Z,2.07
2023-03-02T20:28:07.737Z,2.01
2023-03-02T20:36:56.777Z,2.32
2023-03-02T20:41:26.157Z,2.27
2023-03-02T20:46:02.091Z,2.05
2023-03-02T20:50:34.528Z,1.93
2023-03-02T20:55:04.608Z,1.84
2023-03-02T21:02:50.469Z,1.72
2023-03-02T21:07:21.145Z,1.57
2023-03-02T21:12:02.011Z,1.38
2023-03-02T21:16:31.697Z,1.24
2023-03-02T21:21:01.728Z,1.22
2023-03-02T21:25:32.288Z,1.38
2023-03-02T21:34:11.801Z,0.99
2023-03-02T21:38:26.403Z,0.85
2023-03-02T21:42:56.465Z,0.67
2023-03-02T21:47:27.537Z,0.83
2023-03-02T21:52:00.200Z,0.95
2023-03-02T21:56:11.302Z,0.85
2023-03-02T22:00:22.090Z,0.82
2023-03-02T22:04:52.634Z,0.91
2023-03-02T22:09:29.661Z,0.87
2023-03-02T22:14:05.974Z,1.02
2023-03-02T22:18:35.639Z,1.05
2023-03-02T22:22:45.168Z,1.03
2023-03-02T22:37:19.607Z,0.61
2023-03-02T22:41:28.148Z,0.65
2023-03-02T22:45:00.191Z,0.72
2023-03-02T22:48:51.914Z,0.67
2023-03-02T22:52:42.038Z,0.71
2023-03-02T22:56:37.789Z,0.62
2023-03-02T23:00:26.888Z,0.67
2023-03-02T23:04:12.129Z,0.68
2023-03-02T23:08:01.787Z,0.69
2023-03-02T23:11:52.379Z,0.55
2023-03-02T23:15:56.429Z,0.53
2023-03-02T23:19:44.540Z,0.72
2023-03-02T23:23:33.708Z,0.89
2023-03-02T23:27:16.811Z,0.98
2023-03-02T23:31:12.028Z,1.00
2023-03-02T23:35:01.629Z,0.99
2023-03-02T23:38:54.306Z,0.79
2023-03-02T23:42:43.710Z,0.89
2023-03-02T23:46:31.101Z,0.94
2023-03-02T23:50:21.027Z,1.05
2023-03-02T23:54:14.836Z,1.20
2023-03-02T23:58:10.406Z,1.26
